Terminal Aerodrome Forecast
Issued by NWS Portland, ME

Home | Current Version | Previous Version | Text Only | Print | Product List | Glossary On
Versions: 1 2 3 4 5 6 7 8 9 10 11 12 13 14 15 16 17 18 19 20 21 22 23
000
FTUS41 KGYX 231731
TAFCON
TAF
KCON 231731Z 2318/2418 01011G19KT 6SM -RA BR OVC020
     FM240000 34010KT P6SM -SHRA OVC012
     FM241500 32011KT P6SM OVC025=

USA.gov is the U.S. government's official web portal to all federal, state and local government web resources and services.